Time;durP1;ratioP1;P1;durP2;ratioP2;P2;SDS_P1;SDS_P2;PMS_P1;PMS_P2;Temp;Humidity;BMP_temperature;BMP_pressure;BME280_temperature;BME280_humidity;BME280_pressure;Samples;Min_cycle;Max_cycle;Signal;HPM_P1;HPM_P2
2021/12/31 00:01:17;;;;;;;3.67;1.92;;;22.10;48.60;;;;;;5038295;28;43520;-67
2021/12/31 00:03:45;;;;;;;3.38;2.00;;;22.00;48.50;;;;;;5040034;28;44053;-66
2021/12/31 00:06:13;;;;;;;4.55;2.00;;;22.00;48.60;;;;;;5039354;28;45432;-66
2021/12/31 00:08:40;;;;;;;4.55;2.17;;;22.00;48.60;;;;;;5073264;28;43510;-65
2021/12/31 00:11:08;;;;;;;3.75;1.70;;;22.00;48.60;;;;;;5039211;28;43470;-65
2021/12/31 00:13:35;;;;;;;4.30;1.80;;;22.00;48.60;;;;;;5041399;28;43640;-66
2021/12/31 00:16:03;;;;;;;4.88;2.20;;;22.00;48.70;;;;;;5040066;28;44288;-65
2021/12/31 00:18:31;;;;;;;4.88;2.20;;;22.00;48.70;;;;;;5073534;28;43545;-67
2021/12/31 00:20:58;;;;;;;3.17;1.90;;;22.00;48.70;;;;;;5072983;28;43485;-66
2021/12/31 00:23:27;;;;;;;3.83;2.30;;;22.00;48.70;;;;;;5073116;28;43457;-66
2021/12/31 00:25:55;;;;;;;4.25;2.15;;;22.00;48.70;;;;;;5039704;28;45392;-65
2021/12/31 00:28:22;;;;;;;4.00;2.00;;;21.90;48.70;;;;;;5073340;27;43457;-66
2021/12/31 00:30:53;;;;;;;3.90;2.08;;;21.90;48.80;;;;;;5073509;28;43442;-65
2021/12/31 00:33:22;;;;;;;3.63;2.03;;;21.90;48.80;;;;;;5022677;28;43576;-65
2021/12/31 00:35:50;;;;;;;3.90;1.80;;;21.90;48.80;;;;;;5072888;28;44783;-65
2021/12/31 00:38:17;;;;;;;4.18;2.10;;;21.90;48.80;;;;;;5040829;28;43479;-66
2021/12/31 00:40:45;;;;;;;4.18;1.92;;;21.90;48.70;;;;;;5073293;28;44421;-66
2021/12/31 00:43:13;;;;;;;4.32;2.10;;;21.90;48.70;;;;;;5039440;28;43463;-66
2021/12/31 00:45:41;;;;;;;4.40;2.05;;;21.90;48.70;;;;;;5073121;28;43904;-66
2021/12/31 00:48:11;;;;;;;4.03;1.70;;;21.90;48.70;;;;;;5039267;28;43767;-65
2021/12/31 00:50:39;;;;;;;4.40;2.03;;;21.90;48.80;;;;;;5039512;28;43427;-66
2021/12/31 00:53:07;;;;;;;3.78;2.05;;;21.90;48.70;;;;;;5039332;28;43480;-65
2021/12/31 00:55:36;;;;;;;4.32;1.98;;;21.90;48.80;;;;;;5073149;28;43977;-66
2021/12/31 00:58:05;;;;;;;3.90;2.03;;;21.90;48.80;;;;;;5039492;28;43497;-66
2021/12/31 01:00:33;;;;;;;4.70;2.00;;;21.80;48.80;;;;;;5072763;28;43459;-65
2021/12/31 01:03:01;;;;;;;4.00;2.10;;;21.80;48.70;;;;;;5039245;28;43629;-66
2021/12/31 01:05:29;;;;;;;4.78;2.28;;;21.90;48.80;;;;;;5040146;28;43798;-66
2021/12/31 01:07:56;;;;;;;3.05;1.70;;;21.80;48.70;;;;;;5038941;28;44463;-65
2021/12/31 01:10:27;;;;;;;4.40;1.80;;;21.80;48.70;;;;;;5039090;28;43504;-66
2021/12/31 01:12:55;;;;;;;3.80;1.70;;;21.80;48.80;;;;;;5039130;28;43599;-67
2021/12/31 01:15:46;;;;;;;4.32;2.00;;;21.80;48.80;;;;;;5037693;28;43942;-66
2021/12/31 01:20:39;;;;;;;4.18;2.10;;;21.80;48.70;;;;;;5039160;28;43516;-66
2021/12/31 01:23:09;;;;;;;4.03;1.83;;;21.80;49.40;;;;;;5039039;28;43549;-66
2021/12/31 01:25:36;;;;;;;3.97;1.80;;;21.80;48.70;;;;;;5042035;28;45683;-66
2021/12/31 01:28:05;;;;;;;3.45;1.80;;;21.80;48.70;;;;;;5043701;28;43433;-66
2021/12/31 01:30:33;;;;;;;3.40;1.83;;;21.80;48.70;;;;;;5042566;28;43543;-65
2021/12/31 01:33:00;;;;;;;3.63;1.90;;;21.80;48.80;;;;;;5076077;28;43527;-65
2021/12/31 01:35:28;;;;;;;2.90;1.80;;;21.70;48.70;;;;;;5041891;28;45951;-65
2021/12/31 01:37:55;;;;;;;4.10;1.83;;;21.70;48.80;;;;;;5076706;28;43489;-65
2021/12/31 01:40:22;;;;;;;4.65;2.13;;;21.70;48.80;;;;;;5042347;28;43528;-65
2021/12/31 01:42:50;;;;;;;6.13;2.33;;;21.70;48.80;;;;;;5076137;28;43540;-65
2021/12/31 01:45:20;;;;;;;3.20;1.77;;;21.70;48.80;;;;;;5075554;28;44670;-65
2021/12/31 01:50:24;;;;;;;3.35;1.80;;;21.70;48.90;;;;;;5040606;28;43544;-66
2021/12/31 01:52:52;;;;;;;4.55;2.33;;;21.70;48.90;;;;;;5076281;28;43518;-66
2021/12/31 01:55:22;;;;;;;5.38;2.10;;;21.70;48.90;;;;;;5075170;27;43942;-66
2021/12/31 01:57:49;;;;;;;4.45;2.22;;;21.60;48.90;;;;;;5042078;28;43487;-65
2021/12/31 02:00:17;;;;;;;4.80;1.88;;;21.60;48.90;;;;;;5041798;28;43516;-66
2021/12/31 02:02:46;;;;;;;4.63;2.03;;;21.60;48.90;;;;;;5025371;28;43678;-66
2021/12/31 02:05:15;;;;;;;3.47;2.00;;;21.60;48.90;;;;;;5075154;27;44195;-66
2021/12/31 02:07:42;;;;;;;4.28;1.85;;;21.60;48.90;;;;;;5041927;28;44831;-65
2021/12/31 02:10:10;;;;;;;5.40;2.30;;;21.60;49.00;;;;;;5040775;28;43465;-66
2021/12/31 02:12:45;;;;;;;4.32;2.00;;;21.60;49.00;;;;;;5075771;28;43552;-65
2021/12/31 02:15:16;;;;;;;5.53;2.03;;;21.60;49.00;;;;;;5076894;27;44193;-66
2021/12/31 02:17:44;;;;;;;4.60;2.00;;;21.60;49.00;;;;;;5059224;28;43455;-66
2021/12/31 02:20:12;;;;;;;3.78;2.10;;;21.60;49.00;;;;;;5025278;28;43429;-67
2021/12/31 02:22:50;;;;;;;4.10;1.95;;;21.50;49.00;;;;;;5075106;28;43681;-66
2021/12/31 02:25:19;;;;;;;3.75;2.30;;;21.60;49.10;;;;;;5041196;28;44929;-65
2021/12/31 02:27:46;;;;;;;5.80;2.28;;;21.50;49.00;;;;;;5024925;28;45168;-66
2021/12/31 02:30:14;;;;;;;4.70;2.00;;;21.50;49.10;;;;;;5041730;28;43493;-66
2021/12/31 02:32:42;;;;;;;3.13;1.73;;;21.50;49.00;;;;;;5041569;28;43465;-65
2021/12/31 02:35:10;;;;;;;3.53;1.90;;;21.50;49.10;;;;;;5041055;28;44041;-65
2021/12/31 02:37:38;;;;;;;4.40;2.13;;;21.50;49.10;;;;;;5041225;28;43911;-66
2021/12/31 02:40:08;;;;;;;3.83;1.90;;;21.50;49.10;;;;;;5042763;28;43451;-66
2021/12/31 02:42:36;;;;;;;4.28;1.98;;;21.50;49.10;;;;;;5041035;28;43453;-66
2021/12/31 02:45:07;;;;;;;4.65;1.83;;;21.50;49.10;;;;;;5041329;28;44675;-66
2021/12/31 02:47:35;;;;;;;5.00;2.03;;;21.50;49.20;;;;;;5074778;28;43498;-65
2021/12/31 02:50:04;;;;;;;3.30;1.80;;;21.50;49.10;;;;;;5041490;28;44185;-65
2021/12/31 02:52:32;;;;;;;4.55;2.05;;;21.50;49.10;;;;;;5074358;28;43530;-65
2021/12/31 02:55:01;;;;;;;3.03;1.80;;;21.50;49.10;;;;;;5040986;28;44651;-65
2021/12/31 02:57:29;;;;;;;4.95;2.40;;;21.50;49.10;;;;;;5040954;28;44052;-65
2021/12/31 02:59:57;;;;;;;4.93;1.98;;;21.50;49.10;;;;;;5075109;28;43494;-65
2021/12/31 03:02:26;;;;;;;4.43;1.90;;;21.50;49.10;;;;;;5073698;28;43594;-66
2021/12/31 03:04:55;;;;;;;4.00;2.00;;;21.50;49.10;;;;;;5040817;28;46273;-66
2021/12/31 03:07:23;;;;;;;4.35;2.05;;;21.50;49.20;;;;;;5074773;28;43460;-66
2021/12/31 03:09:53;;;;;;;4.05;2.13;;;21.40;49.00;;;;;;5074639;28;43423;-66
2021/12/31 03:12:21;;;;;;;4.22;1.92;;;21.50;49.20;;;;;;5017458;28;43480;-65
2021/12/31 03:14:49;;;;;;;5.03;2.00;;;21.40;49.20;;;;;;5042529;28;44085;-66
2021/12/31 03:17:19;;;;;;;5.82;2.38;;;21.40;49.20;;;;;;5042025;28;43368;-65
2021/12/31 03:19:46;;;;;;;4.35;1.77;;;21.40;49.30;;;;;;5074833;28;43546;-65
2021/12/31 03:22:14;;;;;;;5.15;2.08;;;21.40;49.20;;;;;;5040300;28;43467;-66
2021/12/31 03:24:41;;;;;;;3.38;1.90;;;21.40;49.20;;;;;;5072104;28;44674;-66
2021/12/31 03:27:08;;;;;;;2.58;1.73;;;21.40;49.30;;;;;;5040514;28;43509;-66
2021/12/31 03:29:36;;;;;;;3.97;1.90;;;21.40;49.20;;;;;;5074646;28;43568;-66
2021/12/31 03:32:05;;;;;;;3.88;1.98;;;21.40;49.30;;;;;;5040405;28;43529;-66
2021/12/31 03:34:32;;;;;;;3.80;1.98;;;21.30;49.20;;;;;;5040320;28;44194;-66
2021/12/31 03:36:59;;;;;;;3.80;1.90;;;21.40;49.20;;;;;;5040522;28;44147;-66
2021/12/31 03:39:27;;;;;;;3.20;1.80;;;21.40;49.20;;;;;;5074297;28;43479;-66
2021/12/31 03:41:54;;;;;;;4.05;1.95;;;21.30;49.30;;;;;;5040146;28;43479;-66
2021/12/31 03:44:22;;;;;;;5.07;2.03;;;21.40;49.30;;;;;;5023939;28;43933;-66
2021/12/31 03:46:49;;;;;;;4.00;2.10;;;21.30;49.20;;;;;;5073404;28;43557;-66
2021/12/31 03:49:17;;;;;;;5.20;2.20;;;21.40;49.30;;;;;;5040390;28;43531;-66
2021/12/31 03:51:44;;;;;;;4.28;2.03;;;21.30;49.30;;;;;;5040195;28;43505;-65
2021/12/31 03:54:12;;;;;;;4.63;2.13;;;21.30;49.30;;;;;;5040486;28;43951;-66
2021/12/31 03:56:39;;;;;;;4.25;2.10;;;21.30;49.30;;;;;;5073967;28;43473;-66
2021/12/31 03:59:07;;;;;;;3.70;1.75;;;21.30;49.30;;;;;;5074310;28;43474;-65
2021/12/31 04:01:34;;;;;;;2.90;1.75;;;21.30;49.30;;;;;;5073431;28;43419;-67
2021/12/31 04:04:02;;;;;;;3.58;2.10;;;21.30;49.40;;;;;;5040032;28;45466;-65
2021/12/31 04:06:29;;;;;;;4.10;2.10;;;21.30;49.40;;;;;;5073558;28;43502;-65
2021/12/31 04:08:57;;;;;;;4.55;1.90;;;21.30;49.50;;;;;;5073809;27;43457;-66
2021/12/31 04:11:24;;;;;;;4.25;2.05;;;21.30;49.40;;;;;;5039367;28;43452;-65
2021/12/31 04:13:52;;;;;;;3.08;1.75;;;21.20;49.30;;;;;;5041558;28;43555;-65
2021/12/31 04:16:19;;;;;;;4.50;1.92;;;21.30;49.40;;;;;;5038291;28;43480;-65
2021/12/31 04:18:47;;;;;;;3.22;1.70;;;21.30;49.40;;;;;;5073681;28;43526;-66
2021/12/31 04:21:19;;;;;;;3.20;1.60;;;21.30;49.40;;;;;;5073756;28;43573;-65
2021/12/31 04:23:49;;;;;;;3.20;1.80;;;21.30;49.30;;;;;;5072987;28;44637;-66
2021/12/31 04:26:17;;;;;;;3.58;1.92;;;21.30;49.40;;;;;;5073194;28;43472;-66
2021/12/31 04:28:45;;;;;;;3.03;2.00;;;21.20;49.50;;;;;;5039732;28;43558;-66
2021/12/31 04:31:14;;;;;;;2.28;1.60;;;21.20;49.50;;;;;;5039522;28;43466;-65
2021/12/31 04:33:41;;;;;;;3.10;1.80;;;21.20;49.50;;;;;;5039905;28;43920;-66
2021/12/31 04:36:09;;;;;;;3.25;1.75;;;21.20;49.50;;;;;;5073376;27;43811;-66
2021/12/31 04:38:36;;;;;;;2.60;1.73;;;21.20;49.60;;;;;;5073676;27;43613;-66
2021/12/31 04:41:03;;;;;;;3.25;1.63;;;21.20;49.60;;;;;;5039298;28;43512;-65
2021/12/31 04:43:31;;;;;;;3.72;1.92;;;21.10;49.60;;;;;;5039412;28;44212;-66
2021/12/31 04:45:58;;;;;;;4.55;1.80;;;21.20;49.70;;;;;;5038841;28;43512;-67
2021/12/31 04:48:26;;;;;;;2.88;1.85;;;21.20;49.60;;;;;;5073483;28;43567;-66
2021/12/31 04:50:53;;;;;;;3.03;1.85;;;21.20;49.70;;;;;;5039184;28;43598;-66
2021/12/31 04:53:21;;;;;;;3.67;1.80;;;21.20;49.70;;;;;;5039260;28;43879;-66
2021/12/31 04:55:50;;;;;;;3.25;1.90;;;21.10;49.60;;;;;;5072909;28;43423;-66
2021/12/31 04:58:17;;;;;;;2.97;1.70;;;21.20;49.60;;;;;;5072638;27;43530;-65
2021/12/31 05:00:45;;;;;;;2.58;1.52;;;21.20;49.60;;;;;;5042860;28;43590;-65
2021/12/31 05:03:14;;;;;;;2.10;1.60;;;21.10;49.60;;;;;;5044347;28;43900;-66
2021/12/31 05:05:42;;;;;;;3.72;2.03;;;21.10;49.70;;;;;;5076337;28;44364;-65
2021/12/31 05:08:09;;;;;;;2.53;1.48;;;21.10;49.70;;;;;;5045254;28;43553;-65
2021/12/31 05:10:36;;;;;;;4.45;2.00;;;21.10;49.80;;;;;;5042418;28;43495;-66
2021/12/31 05:13:05;;;;;;;3.63;1.80;;;21.10;49.80;;;;;;5043457;28;45657;-66
2021/12/31 05:15:36;;;;;;;3.28;1.67;;;21.10;49.70;;;;;;5042375;28;43540;-65
2021/12/31 05:18:04;;;;;;;3.45;1.75;;;21.10;49.80;;;;;;5076480;28;43515;-66
2021/12/31 05:20:31;;;;;;;3.15;1.83;;;21.00;49.80;;;;;;5042935;28;43475;-66
2021/12/31 05:23:00;;;;;;;3.80;1.58;;;21.10;49.80;;;;;;5076037;28;45342;-66
2021/12/31 05:25:28;;;;;;;3.80;1.90;;;21.10;49.80;;;;;;5042198;28;44931;-66
2021/12/31 05:27:56;;;;;;;4.82;1.85;;;21.00;49.90;;;;;;5059717;28;43516;-66
2021/12/31 05:30:25;;;;;;;3.42;1.85;;;21.00;50.50;;;;;;5043857;28;43473;-66
2021/12/31 05:32:53;;;;;;;3.22;1.70;;;21.00;49.80;;;;;;5076488;28;45466;-66
2021/12/31 05:35:21;;;;;;;3.10;1.55;;;21.00;49.90;;;;;;5042500;28;44812;-65
2021/12/31 05:37:50;;;;;;;2.75;1.63;;;21.00;49.80;;;;;;5043520;28;43499;-65
2021/12/31 05:40:17;;;;;;;3.30;1.50;;;21.00;49.80;;;;;;5059409;28;43532;-65
2021/12/31 05:42:45;;;;;;;3.95;1.75;;;21.00;49.90;;;;;;5075438;28;44653;-65
2021/12/31 05:45:13;;;;;;;3.28;1.60;;;21.00;49.90;;;;;;5042513;28;44353;-66
2021/12/31 05:47:42;;;;;;;2.83;1.50;;;21.00;49.90;;;;;;5074975;27;43417;-66
2021/12/31 05:50:27;;;;;;;3.17;1.75;;;21.00;49.90;;;;;;5042203;28;43713;-66
2021/12/31 05:53:00;;;;;;;2.95;1.77;;;21.00;49.90;;;;;;5072649;27;44289;-66
2021/12/31 05:55:28;;;;;;;2.53;1.58;;;21.00;49.90;;;;;;5041889;28;44863;-66
2021/12/31 05:57:56;;;;;;;2.10;1.50;;;21.00;49.90;;;;;;5043706;28;43510;-66
2021/12/31 06:00:25;;;;;;;3.55;1.80;;;21.00;50.00;;;;;;5076397;28;43550;-66
2021/12/31 06:02:53;;;;;;;3.35;1.60;;;21.00;49.90;;;;;;5056064;28;44962;-66
2021/12/31 06:05:23;;;;;;;4.18;1.70;;;21.00;50.00;;;;;;5041267;28;43482;-66
2021/12/31 06:07:50;;;;;;;3.13;1.52;;;21.00;49.90;;;;;;5042035;28;43432;-66
2021/12/31 06:10:18;;;;;;;3.42;1.75;;;21.00;49.90;;;;;;5074755;27;43500;-66
2021/12/31 06:12:45;;;;;;;1.95;1.52;;;21.00;49.90;;;;;;5043351;28;46198;-66
2021/12/31 06:15:16;;;;;;;2.22;1.35;;;21.00;49.90;;;;;;5075818;27;44546;-66
2021/12/31 06:17:43;;;;;;;8.52;1.77;;;21.00;50.00;;;;;;5039827;28;43437;-67
2021/12/31 06:20:11;;;;;;;2.85;1.45;;;21.00;50.00;;;;;;5082732;27;44376;-66
2021/12/31 06:22:39;;;;;;;2.15;1.38;;;21.00;50.10;;;;;;5041319;28;45488;-66
2021/12/31 06:25:07;;;;;;;2.20;1.42;;;21.00;50.00;;;;;;5042076;28;43489;-67
2021/12/31 06:27:35;;;;;;;2.72;1.45;;;21.00;49.90;;;;;;5041811;28;43543;-66
2021/12/31 06:30:06;;;;;;;2.65;1.60;;;21.00;50.00;;;;;;5076070;28;43548;-66
2021/12/31 06:32:33;;;;;;;2.65;1.50;;;21.00;50.00;;;;;;5040993;28;43955;-65
2021/12/31 06:35:00;;;;;;;1.77;1.30;;;21.00;50.10;;;;;;5058002;28;43490;-66
2021/12/31 06:37:28;;;;;;;2.72;1.92;;;21.00;50.10;;;;;;5040994;28;43593;-66
2021/12/31 06:39:55;;;;;;;2.72;1.50;;;21.00;50.10;;;;;;5041844;28;43467;-66
2021/12/31 06:42:25;;;;;;;2.38;1.40;;;21.10;50.10;;;;;;5074793;27;43997;-65
2021/12/31 06:44:53;;;;;;;1.67;1.25;;;21.10;50.10;;;;;;5041625;28;43744;-66
2021/12/31 06:47:20;;;;;;;2.67;1.58;;;21.10;50.10;;;;;;5041251;28;43470;-66
2021/12/31 06:49:48;;;;;;;1.35;1.20;;;21.10;50.10;;;;;;5075615;27;43498;-66
2021/12/31 06:52:15;;;;;;;1.58;1.30;;;21.10;50.00;;;;;;5041816;28;44185;-66
2021/12/31 06:54:43;;;;;;;3.33;1.63;;;21.10;50.00;;;;;;5039506;28;43472;-65
2021/12/31 06:57:10;;;;;;;2.55;1.35;;;21.10;50.00;;;;;;5041002;28;43509;-66
2021/12/31 06:59:38;;;;;;;1.75;1.50;;;21.10;50.00;;;;;;5075430;28;43470;-61
2021/12/31 07:02:06;;;;;;;2.15;1.20;;;21.10;50.10;;;;;;5041913;28;43981;-63
2021/12/31 07:04:33;;;;;;;3.25;1.60;;;21.10;50.00;;;;;;5042063;28;44068;-64
2021/12/31 07:07:01;;;;;;;1.55;1.42;;;21.20;50.30;;;;;;5072823;28;43545;-65
2021/12/31 07:09:30;;;;;;;1.90;1.30;;;21.20;50.10;;;;;;5060349;28;43614;-65
2021/12/31 07:11:58;;;;;;;2.03;1.38;;;21.20;50.10;;;;;;5042139;28;44000;-67
2021/12/31 07:14:26;;;;;;;1.83;1.50;;;21.20;50.00;;;;;;5036567;28;43444;-65
2021/12/31 07:16:56;;;;;;;2.70;1.45;;;21.20;50.00;;;;;;5071031;28;43507;-65
2021/12/31 07:19:23;;;;;;;2.30;1.30;;;21.20;50.00;;;;;;5076722;28;43546;-66
2021/12/31 07:21:51;;;;;;;1.92;1.50;;;21.20;49.90;;;;;;5038697;28;45818;-66
2021/12/31 07:24:18;;;;;;;2.80;1.60;;;21.20;49.90;;;;;;5043429;28;43474;-65
2021/12/31 07:26:46;;;;;;;2.45;1.70;;;21.30;49.90;;;;;;5041697;28;43460;-65
2021/12/31 07:29:13;;;;;;;1.73;1.35;;;21.30;49.90;;;;;;5073222;28;43499;-66
2021/12/31 07:31:40;;;;;;;3.72;1.40;;;21.20;49.90;;;;;;5040884;28;43945;-66
2021/12/31 07:34:08;;;;;;;2.70;1.55;;;21.30;49.90;;;;;;5042770;28;43489;-66
2021/12/31 07:36:35;;;;;;;2.13;1.30;;;21.30;49.80;;;;;;5042192;28;43429;-65
2021/12/31 07:39:07;;;;;;;2.58;1.30;;;21.30;49.80;;;;;;5043733;28;43423;-66
2021/12/31 07:41:34;;;;;;;2.33;1.30;;;21.30;49.70;;;;;;5074465;28;43921;-66
2021/12/31 07:44:02;;;;;;;1.55;1.30;;;21.30;49.70;;;;;;5042428;28;43532;-68
2021/12/31 07:46:30;;;;;;;1.42;1.17;;;21.30;49.60;;;;;;5034748;28;43527;-67
2021/12/31 07:48:57;;;;;;;2.65;1.60;;;21.40;49.80;;;;;;5075444;28;43896;-69
2021/12/31 07:51:25;;;;;;;2.03;1.20;;;21.40;49.80;;;;;;5041294;28;43931;-66
2021/12/31 07:53:52;;;;;;;3.60;1.30;;;21.40;49.70;;;;;;5042423;28;43547;-68
2021/12/31 07:56:20;;;;;;;1.77;1.30;;;21.40;49.60;;;;;;5035690;28;43502;-66
2021/12/31 07:58:47;;;;;;;1.75;1.30;;;21.40;49.60;;;;;;5043831;28;43411;-67
2021/12/31 08:01:16;;;;;;;3.58;1.67;;;21.40;49.60;;;;;;5075665;28;43920;-68
2021/12/31 08:03:44;;;;;;;3.63;1.50;;;21.50;49.60;;;;;;5042408;28;43542;-68
2021/12/31 08:06:12;;;;;;;2.47;1.20;;;21.40;49.50;;;;;;5076027;28;43457;-69
2021/12/31 08:08:39;;;;;;;1.10;1.00;;;21.50;49.50;;;;;;5075983;28;43474;-68
2021/12/31 08:11:07;;;;;;;2.05;1.30;;;21.50;49.50;;;;;;5058647;28;46120;-64
2021/12/31 08:13:34;;;;;;;1.98;1.23;;;21.50;49.40;;;;;;5043491;28;43683;-67
2021/12/31 08:16:02;;;;;;;3.35;1.17;;;21.50;49.50;;;;;;5040558;28;43528;-67
2021/12/31 08:18:30;;;;;;;2.10;1.33;;;21.50;49.50;;;;;;5075846;28;43459;-67
2021/12/31 08:20:57;;;;;;;1.85;1.20;;;21.50;49.40;;;;;;5075810;28;45796;-66
2021/12/31 08:23:25;;;;;;;2.13;1.27;;;21.50;49.40;;;;;;5043068;28;43621;-68
2021/12/31 08:25:52;;;;;;;1.40;1.30;;;21.50;50.00;;;;;;5075548;28;43435;-65
2021/12/31 08:28:20;;;;;;;1.50;1.35;;;21.50;49.30;;;;;;5075336;28;43507;-65
2021/12/31 08:30:48;;;;;;;2.25;1.35;;;21.50;49.20;;;;;;5075443;28;43935;-66
2021/12/31 08:33:15;;;;;;;1.67;1.30;;;21.50;49.30;;;;;;5060576;28;44925;-67
2021/12/31 08:35:43;;;;;;;1.58;1.25;;;21.50;49.40;;;;;;5079151;28;43414;-67
2021/12/31 08:38:10;;;;;;;2.88;1.30;;;21.50;49.30;;;;;;5078765;28;43533;-66
2021/12/31 08:40:38;;;;;;;1.60;1.10;;;21.50;49.30;;;;;;5079649;28;45946;-67
2021/12/31 08:43:05;;;;;;;1.27;1.10;;;21.60;49.30;;;;;;5045259;28;43736;-66
2021/12/31 08:45:33;;;;;;;2.20;1.42;;;21.50;49.40;;;;;;5079463;28;43393;-66
2021/12/31 08:48:02;;;;;;;1.25;1.00;;;21.50;49.40;;;;;;5076598;28;43594;-67
2021/12/31 08:50:30;;;;;;;2.53;1.33;;;21.50;49.40;;;;;;5078741;28;44683;-66
2021/12/31 08:52:58;;;;;;;1.98;1.33;;;21.50;49.40;;;;;;5045483;28;44980;-66
2021/12/31 08:55:25;;;;;;;1.42;1.00;;;21.50;49.40;;;;;;5078889;27;43471;-67
2021/12/31 08:57:53;;;;;;;2.17;1.13;;;21.60;49.40;;;;;;5042917;28;43423;-68
2021/12/31 09:00:20;;;;;;;1.65;1.17;;;21.60;49.50;;;;;;5078921;28;43928;-67
2021/12/31 09:02:50;;;;;;;2.55;1.38;;;21.60;49.60;;;;;;5044538;28;43538;-69
2021/12/31 09:05:18;;;;;;;1.80;1.20;;;21.60;50.00;;;;;;5079132;28;43507;-69
2021/12/31 09:07:45;;;;;;;2.53;1.30;;;21.60;49.60;;;;;;5044394;28;43495;-68
2021/12/31 09:10:13;;;;;;;2.13;1.40;;;21.60;49.60;;;;;;5078123;28;45043;-67
2021/12/31 09:12:44;;;;;;;2.20;1.50;;;21.60;49.60;;;;;;5044282;28;43730;-68
2021/12/31 09:15:11;;;;;;;1.70;1.30;;;21.60;49.60;;;;;;5080703;27;43407;-67
2021/12/31 09:17:39;;;;;;;1.60;1.30;;;21.60;49.60;;;;;;5044073;28;43539;-68
2021/12/31 09:20:07;;;;;;;2.22;1.70;;;21.60;49.50;;;;;;5041172;28;43675;-68
2021/12/31 09:22:35;;;;;;;1.85;1.55;;;21.60;49.60;;;;;;5045495;28;43555;-68
2021/12/31 09:25:03;;;;;;;1.95;1.35;;;21.60;49.60;;;;;;5078985;27;43460;-69
2021/12/31 09:27:31;;;;;;;2.47;1.50;;;21.60;49.60;;;;;;5044473;28;43688;-67
2021/12/31 09:29:58;;;;;;;3.42;1.60;;;21.60;49.60;;;;;;5045264;28;44173;-68
2021/12/31 09:32:26;;;;;;;2.30;1.50;;;21.70;49.60;;;;;;5044025;28;43597;-68
2021/12/31 09:34:54;;;;;;;1.40;1.20;;;21.70;49.60;;;;;;5078399;28;43439;-69
2021/12/31 09:37:21;;;;;;;2.10;1.55;;;21.70;49.60;;;;;;5077564;28;43498;-68
2021/12/31 09:39:49;;;;;;;1.95;1.40;;;21.60;49.60;;;;;;5044506;28;43947;-68
2021/12/31 09:42:16;;;;;;;2.40;1.50;;;21.60;49.70;;;;;;5060838;28;43839;-68
2021/12/31 09:44:48;;;;;;;3.42;1.80;;;21.60;49.70;;;;;;5072864;27;44023;-69
2021/12/31 09:47:17;;;;;;;2.78;1.60;;;21.60;49.70;;;;;;5078689;27;44068;-67
2021/12/31 09:49:47;;;;;;;3.55;1.85;;;21.60;49.70;;;;;;5046139;28;43589;-66
2021/12/31 09:52:17;;;;;;;3.13;1.48;;;21.60;49.70;;;;;;5044071;28;44877;-66
2021/12/31 09:54:48;;;;;;;3.45;1.90;;;21.70;49.80;;;;;;5045039;28;43458;-67
2021/12/31 09:57:20;;;;;;;3.35;1.60;;;21.70;49.70;;;;;;5076103;28;43501;-68
2021/12/31 09:59:48;;;;;;;2.30;1.73;;;21.70;49.70;;;;;;5043993;28;45286;-68
2021/12/31 10:02:28;;;;;;;2.10;1.50;;;21.70;49.70;;;;;;5077274;28;44692;-66
2021/12/31 10:04:58;;;;;;;1.92;1.70;;;21.70;49.70;;;;;;5078262;28;43481;-66
2021/12/31 10:07:28;;;;;;;2.65;1.60;;;21.70;49.70;;;;;;5077892;27;43577;-68
2021/12/31 10:10:12;;;;;;;3.15;1.90;;;21.70;49.80;;;;;;5044025;28;45920;-68
2021/12/31 10:12:49;;;;;;;2.83;1.50;;;21.70;49.70;;;;;;5043128;28;43449;-66
2021/12/31 10:15:24;;;;;;;3.63;1.80;;;21.70;49.80;;;;;;5079316;27;43439;-66
2021/12/31 10:17:53;;;;;;;2.03;1.55;;;21.70;50.10;;;;;;5077681;28;43511;-65
2021/12/31 10:20:21;;;;;;;3.15;1.90;;;21.70;49.90;;;;;;5045119;28;43835;-68
2021/12/31 10:22:50;;;;;;;3.47;1.73;;;21.70;49.90;;;;;;5043416;28;43797;-68
2021/12/31 10:25:17;;;;;;;2.28;1.52;;;21.80;50.00;;;;;;5040809;28;43481;-68
2021/12/31 10:27:45;;;;;;;2.35;1.40;;;21.80;49.90;;;;;;5043521;28;43494;-66
2021/12/31 10:30:13;;;;;;;3.22;1.60;;;21.80;49.90;;;;;;5043960;28;44240;-69
2021/12/31 10:32:46;;;;;;;2.35;1.75;;;21.80;49.80;;;;;;5077735;28;43509;-70
2021/12/31 10:35:20;;;;;;;3.03;1.70;;;21.80;49.80;;;;;;5027475;28;43485;-67
2021/12/31 10:37:57;;;;;;;2.42;1.58;;;21.80;49.80;;;;;;5073207;27;43624;-69
2021/12/31 10:40:39;;;;;;;3.35;1.63;;;21.90;49.90;;;;;;5076770;27;45955;-66
2021/12/31 10:43:16;;;;;;;2.63;1.70;;;21.90;49.90;;;;;;5043468;28;43441;-68
2021/12/31 10:46:10;;;;;;;3.83;1.85;;;21.80;49.80;;;;;;5087719;27;43516;-70
2021/12/31 10:48:44;;;;;;;3.60;1.67;;;21.90;49.80;;;;;;5076741;28;43410;-69
2021/12/31 10:51:14;;;;;;;2.63;1.70;;;21.90;49.80;;;;;;5043970;28;45241;-69
2021/12/31 10:53:50;;;;;;;3.40;1.90;;;21.90;49.90;;;;;;5076968;28;44372;-70
2021/12/31 10:56:18;;;;;;;1.95;1.52;;;21.90;49.90;;;;;;5042936;28;43490;-69
2021/12/31 10:58:56;;;;;;;2.58;1.70;;;21.90;49.90;;;;;;4148107;28;10001645;-65
2021/12/31 11:01:23;;;;;;;3.65;1.60;;;21.90;50.10;;;;;;5072853;27;43548;-66
2021/12/31 11:03:53;;;;;;;27.40;17.98;;;21.90;50.10;;;;;;5055967;28;43526;-62
2021/12/31 11:06:23;;;;;;;17.15;11.90;;;22.00;51.20;;;;;;5039527;28;44175;-66
2021/12/31 11:08:54;;;;;;;14.40;9.15;;;22.00;50.20;;;;;;5065421;28;44592;-69
2021/12/31 11:11:24;;;;;;;12.20;8.15;;;22.00;50.30;;;;;;5037882;28;43636;-63
2021/12/31 11:13:52;;;;;;;14.63;9.03;;;22.10;50.60;;;;;;5042997;28;43461;-67
2021/12/31 11:16:20;;;;;;;14.18;8.73;;;22.10;50.30;;;;;;5042036;28;43684;-67
2021/12/31 11:18:50;;;;;;;13.30;8.00;;;22.10;50.30;;;;;;5040116;28;44433;-68
2021/12/31 11:21:18;;;;;;;10.45;7.15;;;22.10;50.20;;;;;;5074349;28;43559;-68
2021/12/31 11:23:46;;;;;;;11.85;7.70;;;22.10;50.20;;;;;;5041470;28;43585;-67
2021/12/31 11:26:13;;;;;;;10.55;6.35;;;22.20;50.10;;;;;;5040598;28;43937;-66
2021/12/31 11:28:46;;;;;;;10.65;6.18;;;22.20;50.00;;;;;;5038633;28;43510;-66
2021/12/31 11:31:17;;;;;;;11.13;6.45;;;22.20;50.00;;;;;;5072698;28;43613;-68
2021/12/31 11:33:47;;;;;;;9.07;5.85;;;22.20;49.90;;;;;;5093102;27;43515;-68
2021/12/31 11:36:15;;;;;;;7.00;5.15;;;22.20;49.80;;;;;;5040517;28;43992;-67
2021/12/31 11:38:45;;;;;;;8.95;5.05;;;22.30;50.00;;;;;;5057832;28;44475;-67
2021/12/31 11:41:23;;;;;;;7.40;4.75;;;22.30;50.00;;;;;;5075548;27;43442;-67
2021/12/31 11:44:06;;;;;;;8.07;4.78;;;22.30;49.80;;;;;;5074366;28;43584;-67
2021/12/31 11:46:36;;;;;;;6.97;4.13;;;22.40;49.80;;;;;;5074490;28;46150;-67
2021/12/31 11:49:28;;;;;;;5.97;4.10;;;22.40;49.70;;;;;;5058376;28;45155;-66
2021/12/31 11:52:08;;;;;;;5.45;4.10;;;22.40;49.70;;;;;;5074373;28;43463;-67
2021/12/31 11:54:37;;;;;;;6.88;4.07;;;22.50;49.70;;;;;;5074601;28;43571;-68
2021/12/31 11:57:07;;;;;;;6.07;4.20;;;22.50;49.60;;;;;;5040642;28;43984;-66
2021/12/31 11:59:37;;;;;;;5.00;3.70;;;22.50;49.60;;;;;;5074174;28;43477;-67
2021/12/31 12:02:07;;;;;;;5.18;3.67;;;22.50;49.60;;;;;;5074145;28;43538;-66
2021/12/31 12:04:36;;;;;;;4.78;3.55;;;22.60;49.60;;;;;;5040413;28;43617;-66
2021/12/31 12:07:30;;;;;;;5.32;3.75;;;22.60;49.50;;;;;;5039508;28;45911;-67
2021/12/31 12:09:57;;;;;;;4.82;3.10;;;22.60;49.50;;;;;;5063691;28;43566;-67
2021/12/31 12:12:28;;;;;;;5.70;3.40;;;22.60;49.40;;;;;;5038639;28;43567;-66
2021/12/31 12:15:04;;;;;;;5.15;3.28;;;22.60;49.40;;;;;;5041798;28;43520;-67
2021/12/31 12:17:31;;;;;;;5.60;3.20;;;22.60;49.40;;;;;;5023070;28;44070;-67
2021/12/31 12:20:02;;;;;;;4.10;2.90;;;22.70;49.60;;;;;;5023248;28;43451;-67
2021/12/31 12:22:44;;;;;;;4.85;3.40;;;22.70;49.50;;;;;;5040127;28;43539;-69
2021/12/31 12:25:34;;;;;;;4.07;2.97;;;22.70;49.50;;;;;;5074145;28;43542;-67
2021/12/31 12:28:06;;;;;;;4.72;3.30;;;22.70;49.30;;;;;;5074576;27;45806;-68
2021/12/31 12:30:36;;;;;;;5.03;3.08;;;22.70;49.40;;;;;;5039703;28;43512;-64
2021/12/31 12:35:42;;;;;;;5.18;2.97;;;22.70;49.30;;;;;;5038312;28;44027;-67
2021/12/31 12:38:14;;;;;;;6.32;2.80;;;22.80;49.40;;;;;;5072668;28;44194;-69
2021/12/31 12:40:48;;;;;;;5.82;2.88;;;22.80;49.30;;;;;;5074022;27;43684;-69
2021/12/31 12:43:22;;;;;;;5.03;2.60;;;22.80;49.30;;;;;;5036386;28;43466;-66
2021/12/31 12:45:50;;;;;;;4.47;2.47;;;22.70;49.30;;;;;;5073642;28;43586;-66
2021/12/31 12:48:33;;;;;;;4.53;2.55;;;22.80;49.50;;;;;;5056068;28;45062;-67
2021/12/31 12:51:06;;;;;;;5.38;2.80;;;22.80;49.50;;;;;;5073319;28;44870;-65
2021/12/31 12:53:37;;;;;;;5.55;2.25;;;22.70;49.50;;;;;;5040848;28;43434;-64
2021/12/31 12:56:09;;;;;;;4.00;2.10;;;22.70;49.50;;;;;;5042307;28;43803;-66
2021/12/31 12:58:48;;;;;;;3.28;2.10;;;22.80;49.40;;;;;;5073131;28;44744;-65
2021/12/31 13:01:16;;;;;;;4.72;2.58;;;22.80;49.30;;;;;;5041417;28;43535;-65
2021/12/31 13:03:55;;;;;;;4.38;2.53;;;22.80;50.00;;;;;;5073111;28;43520;-64